createdAt,value
2018-09-15T00:01:00.255Z,96.30
2018-09-15T00:03:28.491Z,95.90
2018-09-15T00:05:56.700Z,95.90
2018-09-15T00:08:24.896Z,95.90
2018-09-15T00:10:53.132Z,95.90
2018-09-15T00:13:22.468Z,95.90
2018-09-15T00:15:50.816Z,95.90
2018-09-15T00:18:19.156Z,95.90
2018-09-15T00:20:47.383Z,96.20
2018-09-15T00:23:15.680Z,95.90
2018-09-15T00:25:43.908Z,95.90
2018-09-15T00:28:12.851Z,95.80
2018-09-15T00:30:41.726Z,95.80
2018-09-15T00:33:09.948Z,95.70
2018-09-15T00:35:38.185Z,95.70
2018-09-15T00:38:06.474Z,95.70
2018-09-15T00:40:34.720Z,95.70
2018-09-15T00:43:02.912Z,95.60
2018-09-15T00:45:31.160Z,95.60
2018-09-15T00:47:59.419Z,95.60
2018-09-15T00:50:27.630Z,95.50
2018-09-15T00:52:55.844Z,95.50
2018-09-15T00:55:24.145Z,95.50
2018-09-15T00:57:52.349Z,95.40
2018-09-15T01:00:21.057Z,95.40
2018-09-15T01:02:49.291Z,95.40
2018-09-15T01:05:17.787Z,95.30
2018-09-15T01:07:45.990Z,95.30
2018-09-15T01:10:14.215Z,95.20
2018-09-15T01:12:42.460Z,95.10
2018-09-15T01:15:10.713Z,95.10
2018-09-15T01:17:38.934Z,95.00
2018-09-15T01:20:07.190Z,94.90
2018-09-15T01:22:35.356Z,94.80
2018-09-15T01:25:03.613Z,95.10
2018-09-15T01:27:31.796Z,94.70
2018-09-15T01:29:59.997Z,94.70
2018-09-15T01:32:28.651Z,94.80
2018-09-15T01:34:57.165Z,94.80
2018-09-15T01:37:25.516Z,94.80
2018-09-15T01:39:53.732Z,94.70
2018-09-15T01:42:21.968Z,94.60
2018-09-15T01:44:50.214Z,94.50
2018-09-15T01:47:18.416Z,94.40
2018-09-15T01:49:46.648Z,94.30
2018-09-15T01:52:14.863Z,94.30
2018-09-15T01:54:43.147Z,94.30
2018-09-15T01:57:11.451Z,94.30
2018-09-15T01:59:39.796Z,94.30
2018-09-15T02:02:08.059Z,94.30
2018-09-15T02:04:36.267Z,94.30
2018-09-15T02:07:04.455Z,94.30
2018-09-15T02:09:32.663Z,94.40
2018-09-15T02:12:00.871Z,94.40
2018-09-15T02:14:29.059Z,94.50
2018-09-15T02:16:57.286Z,94.50
2018-09-15T02:19:25.562Z,94.60
2018-09-15T02:21:53.748Z,94.60
2018-09-15T02:24:21.980Z,94.70
2018-09-15T02:26:50.200Z,94.80
2018-09-15T02:29:18.371Z,95.00
2018-09-15T02:31:46.568Z,95.30
2018-09-15T02:34:14.776Z,95.40
2018-09-15T02:36:42.999Z,95.60
2018-09-15T02:39:12.024Z,95.80
2018-09-15T02:41:40.235Z,95.90
2018-09-15T02:44:08.448Z,96.10
2018-09-15T02:46:36.756Z,96.20
2018-09-15T02:49:05.021Z,96.30
2018-09-15T02:51:33.240Z,96.50
2018-09-15T02:54:01.447Z,96.60
2018-09-15T02:56:29.664Z,96.70
2018-09-15T02:58:57.860Z,96.80
2018-09-15T03:01:26.333Z,96.90
2018-09-15T03:03:54.530Z,96.90
2018-09-15T03:06:22.768Z,96.90
2018-09-15T03:08:50.963Z,96.80
2018-09-15T03:11:19.180Z,96.60
2018-09-15T03:13:47.367Z,96.30
2018-09-15T03:16:15.600Z,96.10
2018-09-15T03:18:43.821Z,95.90
2018-09-15T03:21:12.977Z,95.70
2018-09-15T03:23:41.336Z,95.50
2018-09-15T03:26:09.539Z,95.40
2018-09-15T03:28:37.759Z,95.20
2018-09-15T03:31:05.979Z,95.10
2018-09-15T03:33:34.183Z,94.90
2018-09-15T03:36:02.365Z,94.90
2018-09-15T03:38:30.600Z,94.80
2018-09-15T03:40:58.796Z,94.70
2018-09-15T03:43:26.994Z,94.70
2018-09-15T03:45:55.210Z,94.70
2018-09-15T03:48:23.471Z,94.80
2018-09-15T03:50:51.715Z,95.00
2018-09-15T03:53:19.901Z,95.10
2018-09-15T03:55:48.143Z,95.10
2018-09-15T03:58:16.398Z,95.20
2018-09-15T04:00:46.395Z,95.20
2018-09-15T04:03:14.606Z,95.20
2018-09-15T04:05:42.845Z,95.00
2018-09-15T04:08:11.036Z,94.80
2018-09-15T04:10:39.252Z,94.60
2018-09-15T04:13:07.552Z,94.40
2018-09-15T04:15:35.758Z,94.20
2018-09-15T04:18:03.980Z,94.10
2018-09-15T04:20:32.171Z,94.00
2018-09-15T04:23:00.376Z,93.90
2018-09-15T04:25:28.676Z,93.70
2018-09-15T04:27:56.853Z,93.50
2018-09-15T04:30:25.064Z,93.40
2018-09-15T04:32:53.349Z,93.20
2018-09-15T04:35:21.569Z,93.10
2018-09-15T04:37:49.771Z,93.00
2018-09-15T04:40:17.967Z,92.80
2018-09-15T04:42:46.177Z,92.70
2018-09-15T04:45:14.395Z,92.50
2018-09-15T04:47:42.624Z,92.50
2018-09-15T04:50:11.549Z,92.40
2018-09-15T04:52:39.806Z,92.30
2018-09-15T04:55:07.968Z,92.20
2018-09-15T04:57:36.223Z,92.00
2018-09-15T05:00:04.472Z,92.00
2018-09-15T05:02:32.748Z,92.00
2018-09-15T05:05:00.968Z,92.00
2018-09-15T05:07:29.208Z,91.90
2018-09-15T05:09:57.491Z,91.90
2018-09-15T05:12:25.755Z,91.80
2018-09-15T05:14:53.947Z,91.80
2018-09-15T05:17:22.156Z,91.80
2018-09-15T05:19:50.429Z,91.80
2018-09-15T05:22:18.614Z,91.90
2018-09-15T05:24:46.804Z,91.90
2018-09-15T05:27:15.119Z,92.10
2018-09-15T05:29:43.400Z,92.20
2018-09-15T05:32:11.630Z,92.30
2018-09-15T05:34:39.875Z,92.40
2018-09-15T05:37:08.112Z,92.50
2018-09-15T05:39:36.299Z,92.60
2018-09-15T05:42:04.528Z,92.70
2018-09-15T05:44:32.756Z,92.70
2018-09-15T05:47:01.013Z,92.80
2018-09-15T05:49:29.226Z,92.90
2018-09-15T05:51:58.295Z,93.00
2018-09-15T05:54:26.498Z,93.20
2018-09-15T05:56:54.704Z,93.30
2018-09-15T05:59:22.920Z,93.40
2018-09-15T06:01:51.263Z,93.60
2018-09-15T06:04:19.464Z,93.80
2018-09-15T06:06:47.704Z,93.90
2018-09-15T06:09:15.951Z,94.00
2018-09-15T06:11:44.155Z,94.10
2018-09-15T06:14:12.500Z,94.30
2018-09-15T06:16:41.532Z,94.40
2018-09-15T06:19:09.897Z,94.60
2018-09-15T06:21:38.145Z,94.70
2018-09-15T06:24:06.372Z,94.90
2018-09-15T06:26:34.969Z,95.00
2018-09-15T06:29:03.240Z,95.10
2018-09-15T06:31:31.459Z,95.10
2018-09-15T06:33:59.652Z,95.10
2018-09-15T06:36:27.944Z,95.10
2018-09-15T06:38:56.199Z,95.10
2018-09-15T06:41:24.412Z,95.00
2018-09-15T06:43:52.891Z,95.00
2018-09-15T06:46:21.129Z,94.90
2018-09-15T06:48:49.480Z,94.90
2018-09-15T06:51:17.916Z,94.80
2018-09-15T06:53:46.165Z,94.70
2018-09-15T06:56:14.352Z,94.70
2018-09-15T06:58:42.560Z,94.50
2018-09-15T07:01:10.830Z,94.30
2018-09-15T07:03:39.036Z,94.00
2018-09-15T07:06:07.299Z,93.70
2018-09-15T07:08:35.616Z,93.40
2018-09-15T07:11:03.881Z,92.80
2018-09-15T07:13:32.092Z,92.60
2018-09-15T07:16:00.340Z,92.20
2018-09-15T07:18:28.572Z,91.90
2018-09-15T07:20:56.832Z,91.70
2018-09-15T07:23:25.268Z,91.40
2018-09-15T07:25:53.522Z,91.00
2018-09-15T07:28:21.771Z,90.80
2018-09-15T07:30:50.268Z,90.60
2018-09-15T07:33:18.476Z,90.40
2018-09-15T07:35:46.738Z,90.20
2018-09-15T07:38:14.964Z,89.90
2018-09-15T07:40:43.173Z,89.40
2018-09-15T07:43:11.436Z,88.80
2018-09-15T07:45:39.678Z,88.50
2018-09-15T07:48:07.879Z,87.90
2018-09-15T07:50:36.079Z,87.60
2018-09-15T07:53:04.426Z,87.20
2018-09-15T07:55:32.583Z,86.60
2018-09-15T07:58:01.065Z,86.10
2018-09-15T08:00:29.087Z,85.60
2018-09-15T08:02:57.299Z,85.00
2018-09-15T08:05:25.605Z,84.90
2018-09-15T08:07:53.827Z,84.70
2018-09-15T08:10:22.903Z,84.10
2018-09-15T08:12:51.136Z,82.90
2018-09-15T08:15:19.460Z,81.80
2018-09-15T08:17:47.656Z,81.30
2018-09-15T08:20:15.870Z,79.70
2018-09-15T08:22:44.125Z,78.70
2018-09-15T08:25:12.479Z,78.30
2018-09-15T08:27:40.707Z,77.40
2018-09-15T08:30:08.909Z,77.40
2018-09-15T08:32:37.112Z,77.00
2018-09-15T08:35:05.485Z,77.20
2018-09-15T08:37:33.702Z,77.40
2018-09-15T08:40:01.928Z,77.20
2018-09-15T08:42:30.156Z,76.90
2018-09-15T08:44:58.380Z,76.50
2018-09-15T08:47:26.646Z,76.20
2018-09-15T08:49:54.884Z,75.80
2018-09-15T08:52:23.103Z,75.70
2018-09-15T08:54:51.303Z,75.20
2018-09-15T08:57:19.589Z,74.60
2018-09-15T08:59:47.821Z,74.50
2018-09-15T09:02:16.964Z,74.20
2018-09-15T09:04:45.542Z,73.70
2018-09-15T09:07:13.812Z,73.00
2018-09-15T09:09:42.026Z,72.60
2018-09-15T09:12:10.792Z,71.40
2018-09-15T09:14:39.019Z,70.10
2018-09-15T09:17:07.290Z,69.40
2018-09-15T09:19:35.535Z,68.70
2018-09-15T09:22:03.740Z,69.00
2018-09-15T09:24:31.973Z,68.70
2018-09-15T09:27:00.172Z,68.60
2018-09-15T09:29:28.388Z,68.20
2018-09-15T09:31:56.608Z,68.10
2018-09-15T09:34:24.868Z,67.70
2018-09-15T09:36:53.124Z,67.00
2018-09-15T09:39:21.340Z,66.60
2018-09-15T09:41:49.595Z,65.40
2018-09-15T09:44:17.854Z,64.80
2018-09-15T09:46:46.052Z,64.30
2018-09-15T09:49:14.449Z,63.80
2018-09-15T09:51:42.667Z,64.20
2018-09-15T09:54:11.008Z,63.60
2018-09-15T09:56:39.228Z,63.30
2018-09-15T09:59:07.444Z,63.10
2018-09-15T10:01:41.083Z,62.20
2018-09-15T10:04:09.284Z,62.30
2018-09-15T10:06:37.532Z,62.50
2018-09-15T10:09:08.284Z,62.10
2018-09-15T10:11:36.599Z,61.50
2018-09-15T10:14:04.832Z,60.70
2018-09-15T10:16:33.037Z,59.70
2018-09-15T10:19:01.287Z,59.50
2018-09-15T10:21:29.567Z,59.40
2018-09-15T10:23:57.868Z,59.30
2018-09-15T10:26:26.139Z,59.50
2018-09-15T10:28:54.551Z,59.80
2018-09-15T10:31:22.860Z,60.20
2018-09-15T10:33:51.128Z,60.50
2018-09-15T10:36:19.471Z,60.60
2018-09-15T10:38:47.717Z,60.80
2018-09-15T10:41:15.956Z,61.00
2018-09-15T10:43:44.212Z,61.20
2018-09-15T10:46:12.656Z,61.10
2018-09-15T10:48:40.848Z,61.00
2018-09-15T10:51:09.134Z,59.80
2018-09-15T10:53:37.364Z,59.40
2018-09-15T10:56:05.607Z,59.10
2018-09-15T10:58:33.846Z,58.40
2018-09-15T11:01:02.074Z,57.50
2018-09-15T11:03:30.295Z,56.70
2018-09-15T11:05:58.693Z,55.80
2018-09-15T11:08:26.884Z,54.80
2018-09-15T11:10:55.114Z,53.90
2018-09-15T11:13:23.926Z,53.60
2018-09-15T11:15:52.041Z,53.50
2018-09-15T11:18:20.244Z,53.20
2018-09-15T11:20:48.540Z,53.00
2018-09-15T11:23:16.854Z,53.00
2018-09-15T11:25:45.061Z,53.50
2018-09-15T11:28:13.312Z,54.00
2018-09-15T11:30:41.637Z,53.70
2018-09-15T11:33:09.997Z,54.10
2018-09-15T11:35:38.227Z,53.70
2018-09-15T11:38:06.451Z,53.70
2018-09-15T11:40:34.661Z,53.40
2018-09-15T11:43:02.869Z,52.00
2018-09-15T11:45:31.092Z,51.60
2018-09-15T11:47:59.322Z,51.80
2018-09-15T11:50:27.531Z,51.70
2018-09-15T11:52:55.750Z,51.80
2018-09-15T11:55:23.997Z,51.50
2018-09-15T11:57:52.224Z,51.50
2018-09-15T12:00:23.788Z,51.30
2018-09-15T12:02:52.120Z,51.50
2018-09-15T12:05:20.323Z,52.00
2018-09-15T12:07:48.630Z,52.20
2018-09-15T12:10:16.786Z,52.40
2018-09-15T12:12:45.122Z,52.40
2018-09-15T12:15:13.419Z,52.70
2018-09-15T12:17:41.647Z,53.20
2018-09-15T12:20:09.890Z,53.10
2018-09-15T12:22:38.204Z,52.70
2018-09-15T12:25:06.433Z,52.80
2018-09-15T12:27:34.657Z,53.00
2018-09-15T12:30:02.912Z,52.40
2018-09-15T12:32:31.111Z,52.20
2018-09-15T12:34:59.379Z,52.60
2018-09-15T12:37:27.595Z,52.50
2018-09-15T12:39:55.840Z,52.50
2018-09-15T12:42:24.042Z,52.20
2018-09-15T12:44:53.959Z,52.10
2018-09-15T12:47:22.232Z,52.00
2018-09-15T12:49:50.456Z,52.00
2018-09-15T12:52:18.748Z,52.40
2018-09-15T12:54:46.979Z,52.30
2018-09-15T12:57:15.199Z,51.60
2018-09-15T12:59:43.588Z,51.10
2018-09-15T13:02:11.845Z,51.30
2018-09-15T13:04:40.070Z,51.10
2018-09-15T13:07:08.284Z,51.00
2018-09-15T13:09:36.511Z,51.30
2018-09-15T13:12:04.727Z,51.30
2018-09-15T13:14:33.821Z,50.90
2018-09-15T13:17:02.031Z,50.70
2018-09-15T13:19:30.353Z,50.50
2018-09-15T13:21:58.591Z,50.10
2018-09-15T13:24:26.844Z,49.70
2018-09-15T13:26:55.117Z,49.50
2018-09-15T13:29:23.335Z,49.30
2018-09-15T13:31:51.539Z,49.30
2018-09-15T13:34:19.781Z,49.50
2018-09-15T13:36:47.970Z,49.40
2018-09-15T13:39:16.263Z,49.20
2018-09-15T13:41:44.488Z,49.10
2018-09-15T13:44:12.835Z,49.10
2018-09-15T13:46:41.115Z,49.20
2018-09-15T13:49:09.325Z,49.20
2018-09-15T13:51:37.560Z,49.00
2018-09-15T13:54:05.857Z,49.10
2018-09-15T13:56:34.080Z,48.70
2018-09-15T13:59:02.303Z,48.50
2018-09-15T14:01:30.547Z,48.50
2018-09-15T14:03:58.795Z,48.50
2018-09-15T14:06:27.031Z,48.80
2018-09-15T14:08:55.243Z,48.90
2018-09-15T14:11:23.524Z,48.70
2018-09-15T14:13:51.747Z,48.70
2018-09-15T14:16:20.040Z,48.60
2018-09-15T14:18:48.203Z,48.30
2018-09-15T14:21:16.493Z,48.50
2018-09-15T14:23:44.700Z,48.10
2018-09-15T14:26:12.976Z,48.20
2018-09-15T14:28:41.528Z,48.20
2018-09-15T14:31:09.740Z,48.10
2018-09-15T14:33:37.992Z,48.10
2018-09-15T14:36:12.912Z,48.10
2018-09-15T14:38:41.284Z,48.00
2018-09-15T14:41:09.520Z,47.70
2018-09-15T14:43:37.704Z,47.90
2018-09-15T14:46:05.924Z,47.90
2018-09-15T14:48:34.177Z,47.90
2018-09-15T14:51:02.392Z,47.70
2018-09-15T14:53:30.580Z,47.70
2018-09-15T14:55:58.840Z,47.70
2018-09-15T14:58:27.044Z,47.60
2018-09-15T15:00:55.263Z,47.40
2018-09-15T15:03:23.459Z,47.50
2018-09-15T15:05:51.679Z,47.40
2018-09-15T15:08:20.010Z,47.50
2018-09-15T15:10:48.223Z,47.60
2018-09-15T15:13:16.424Z,47.70
2018-09-15T15:15:44.657Z,47.60
2018-09-15T15:18:13.029Z,48.20
2018-09-15T15:20:41.235Z,47.80
2018-09-15T15:23:09.454Z,47.90
2018-09-15T15:25:37.649Z,47.60
2018-09-15T15:28:06.068Z,47.40
2018-09-15T15:30:34.360Z,46.80
2018-09-15T15:33:02.556Z,46.20
2018-09-15T15:35:30.892Z,46.50
2018-09-15T15:37:59.052Z,46.70
2018-09-15T15:40:27.267Z,46.80
2018-09-15T15:42:58.362Z,46.80
2018-09-15T15:45:26.593Z,46.60
2018-09-15T15:47:54.793Z,46.30
2018-09-15T15:50:23.035Z,46.20
2018-09-15T15:52:51.271Z,46.40
2018-09-15T15:55:19.480Z,46.70
2018-09-15T15:57:47.716Z,47.00
2018-09-15T16:00:15.920Z,47.20
2018-09-15T16:02:44.164Z,47.60
2018-09-15T16:05:12.380Z,47.70
2018-09-15T16:07:40.650Z,47.90
2018-09-15T16:10:08.852Z,48.10
2018-09-15T16:12:37.063Z,49.00
2018-09-15T16:15:05.688Z,48.70
2018-09-15T16:17:33.924Z,48.80
2018-09-15T16:20:02.114Z,48.90
2018-09-15T16:22:30.334Z,49.10
2018-09-15T16:24:58.571Z,49.20
2018-09-15T16:27:26.776Z,49.50
2018-09-15T16:29:54.970Z,49.60
2018-09-15T16:32:23.197Z,49.60
2018-09-15T16:34:51.384Z,49.80
2018-09-15T16:37:19.596Z,50.00
2018-09-15T16:39:47.789Z,50.80
2018-09-15T16:42:16.016Z,50.50
2018-09-15T16:44:44.236Z,50.60
2018-09-15T16:47:12.556Z,50.70
2018-09-15T16:49:40.811Z,50.70
2018-09-15T16:52:09.029Z,50.90
2018-09-15T16:54:37.248Z,51.20
2018-09-15T16:57:05.600Z,51.30
2018-09-15T16:59:33.896Z,51.50
2018-09-15T17:02:02.071Z,51.80
2018-09-15T17:04:30.312Z,52.00
2018-09-15T17:06:58.663Z,52.10
2018-09-15T17:09:26.868Z,52.30
2018-09-15T17:11:55.100Z,52.50
2018-09-15T17:14:23.367Z,52.80
2018-09-15T17:16:51.614Z,53.20
2018-09-15T17:19:19.883Z,53.40
2018-09-15T17:21:48.121Z,53.80
2018-09-15T17:24:16.323Z,54.10
2018-09-15T17:26:44.520Z,54.50
2018-09-15T17:29:12.764Z,54.80
2018-09-15T17:31:41.132Z,55.10
2018-09-15T17:34:09.428Z,55.60
2018-09-15T17:36:37.692Z,56.00
2018-09-15T17:39:08.516Z,56.50
2018-09-15T17:41:36.943Z,57.00
2018-09-15T17:44:05.233Z,57.50
2018-09-15T17:46:33.477Z,58.00
2018-09-15T17:49:01.725Z,58.30
2018-09-15T17:51:30.011Z,58.70
2018-09-15T17:53:58.284Z,59.10
2018-09-15T17:56:26.487Z,59.50
2018-09-15T17:58:54.765Z,59.90
2018-09-15T18:01:22.962Z,60.40
2018-09-15T18:03:51.168Z,61.00
2018-09-15T18:06:19.487Z,61.50
2018-09-15T18:08:47.751Z,62.60
2018-09-15T18:11:15.990Z,62.10
2018-09-15T18:13:44.215Z,62.70
2018-09-15T18:16:12.404Z,63.40
2018-09-15T18:18:40.743Z,64.10
2018-09-15T18:21:08.981Z,64.90
2018-09-15T18:23:37.168Z,65.40
2018-09-15T18:26:05.404Z,66.10
2018-09-15T18:28:33.625Z,66.70
2018-09-15T18:31:02.860Z,67.40
2018-09-15T18:33:31.088Z,68.10
2018-09-15T18:35:59.365Z,69.00
2018-09-15T18:38:27.547Z,70.00
2018-09-15T18:40:55.890Z,70.80
2018-09-15T18:43:24.120Z,71.70
2018-09-15T18:45:52.327Z,72.60
2018-09-15T18:48:20.637Z,73.50
2018-09-15T18:50:49.207Z,74.40
2018-09-15T18:53:17.478Z,75.30
2018-09-15T18:55:46.309Z,76.10
2018-09-15T18:58:14.516Z,76.70
2018-09-15T19:00:42.796Z,77.40
2018-09-15T19:03:15.028Z,78.20
2018-09-15T19:05:43.959Z,78.80
2018-09-15T19:08:12.239Z,79.10
2018-09-15T19:10:40.477Z,79.40
2018-09-15T19:13:08.664Z,79.40
2018-09-15T19:15:36.880Z,79.50
2018-09-15T19:18:05.135Z,79.60
2018-09-15T19:20:33.465Z,79.70
2018-09-15T19:23:01.766Z,80.10
2018-09-15T19:25:30.287Z,80.50
2018-09-15T19:27:58.492Z,81.20
2018-09-15T19:30:26.831Z,82.00
2018-09-15T19:32:55.029Z,82.70
2018-09-15T19:35:23.253Z,83.70
2018-09-15T19:37:51.451Z,84.40
2018-09-15T19:40:19.744Z,85.00
2018-09-15T19:42:47.963Z,85.50
2018-09-15T19:45:16.152Z,86.10
2018-09-15T19:47:44.365Z,87.40
2018-09-15T19:50:12.602Z,87.20
2018-09-15T19:52:40.812Z,87.60
2018-09-15T19:55:09.004Z,88.00
2018-09-15T19:57:37.231Z,88.20
2018-09-15T20:00:05.583Z,88.50
2018-09-15T20:02:34.136Z,88.80
2018-09-15T20:05:02.341Z,89.10
2018-09-15T20:07:30.551Z,89.40
2018-09-15T20:09:58.792Z,89.70
2018-09-15T20:12:26.980Z,90.00
2018-09-15T20:14:55.258Z,90.20
2018-09-15T20:17:22.569Z,90.40
2018-09-15T20:19:49.880Z,90.50
2018-09-15T20:22:18.342Z,90.60
2018-09-15T20:24:46.612Z,90.80
2018-09-15T20:27:14.914Z,90.90
2018-09-15T20:29:43.131Z,91.10
2018-09-15T20:32:11.420Z,91.20
2018-09-15T20:34:39.707Z,91.30
2018-09-15T20:37:07.976Z,91.30
2018-09-15T20:39:36.188Z,91.40
2018-09-15T20:42:04.436Z,91.40
2018-09-15T20:44:32.663Z,91.40
2018-09-15T20:47:00.885Z,91.40
2018-09-15T20:49:29.113Z,91.60
2018-09-15T20:51:57.383Z,91.70
2018-09-15T20:54:25.615Z,91.90
2018-09-15T20:56:53.827Z,92.00
2018-09-15T20:59:22.140Z,92.00
2018-09-15T21:01:50.363Z,92.10
2018-09-15T21:04:18.572Z,92.30
2018-09-15T21:06:46.836Z,92.40
2018-09-15T21:09:15.026Z,92.60
2018-09-15T21:11:43.253Z,92.70
2018-09-15T21:14:11.556Z,92.60
2018-09-15T21:16:39.756Z,92.70
2018-09-15T21:19:07.956Z,92.80
2018-09-15T21:21:36.279Z,92.80
2018-09-15T21:24:04.540Z,92.80
2018-09-15T21:26:32.787Z,92.90
2018-09-15T21:29:00.983Z,92.90
2018-09-15T21:31:29.307Z,93.00
2018-09-15T21:33:57.620Z,92.90
2018-09-15T21:36:25.865Z,93.00
2018-09-15T21:38:54.120Z,93.00
2018-09-15T21:41:22.296Z,93.10
2018-09-15T21:43:50.594Z,93.10
2018-09-15T21:46:18.883Z,93.10
2018-09-15T21:48:47.065Z,93.20
2018-09-15T21:51:15.316Z,93.20
2018-09-15T21:53:43.571Z,93.30
2018-09-15T21:56:11.760Z,93.40
2018-09-15T21:58:40.013Z,93.50
2018-09-15T22:01:08.207Z,93.60
2018-09-15T22:03:41.711Z,93.70
2018-09-15T22:06:10.020Z,93.90
2018-09-15T22:08:38.206Z,94.00
2018-09-15T22:11:06.588Z,94.00
2018-09-15T22:13:34.791Z,94.10
2018-09-15T22:16:03.105Z,94.10
2018-09-15T22:18:31.220Z,94.20
2018-09-15T22:20:59.536Z,94.30
2018-09-15T22:23:27.727Z,94.40
2018-09-15T22:25:55.992Z,94.30
2018-09-15T22:28:24.188Z,94.70
2018-09-15T22:30:52.404Z,94.50
2018-09-15T22:33:20.600Z,94.50
2018-09-15T22:35:48.876Z,94.60
2018-09-15T22:38:17.092Z,94.60
2018-09-15T22:40:45.326Z,94.70
2018-09-15T22:43:13.617Z,94.80
2018-09-15T22:45:41.814Z,94.90
2018-09-15T22:48:10.020Z,95.00
2018-09-15T22:50:38.205Z,95.10
2018-09-15T22:53:06.423Z,95.20
2018-09-15T22:55:34.640Z,95.20
2018-09-15T22:58:02.908Z,95.30
2018-09-15T23:00:31.102Z,95.40
2018-09-15T23:02:59.332Z,95.50
2018-09-15T23:05:27.543Z,95.50
2018-09-15T23:07:55.719Z,95.60
2018-09-15T23:10:23.936Z,95.60
2018-09-15T23:12:52.119Z,95.80
2018-09-15T23:15:20.327Z,95.90
2018-09-15T23:17:48.540Z,96.00
2018-09-15T23:20:16.743Z,96.00
2018-09-15T23:22:44.972Z,96.10
2018-09-15T23:25:13.235Z,96.10
2018-09-15T23:27:41.443Z,96.20
2018-09-15T23:30:10.700Z,96.20
2018-09-15T23:32:38.887Z,96.30
2018-09-15T23:35:07.163Z,96.30
2018-09-15T23:37:35.352Z,96.40
2018-09-15T23:40:03.615Z,96.50
2018-09-15T23:42:31.845Z,96.60
2018-09-15T23:45:00.070Z,96.70
2018-09-15T23:47:28.264Z,96.70
2018-09-15T23:49:56.464Z,96.80
2018-09-15T23:52:24.656Z,96.80
2018-09-15T23:54:52.906Z,96.90
2018-09-15T23:57:21.047Z,96.90
2018-09-15T23:59:49.260Z,96.90
